createdAt,value
2023-05-17T00:02:21.038Z,3.00
2023-05-17T00:05:08.136Z,3.53
2023-05-17T00:07:55.224Z,3.57
2023-05-17T00:10:42.240Z,4.50
2023-05-17T00:13:29.405Z,7.87
2023-05-17T00:16:16.453Z,5.87
2023-05-17T00:19:03.637Z,6.20
2023-05-17T00:21:50.848Z,7.87
2023-05-17T00:24:38.091Z,8.43
2023-05-17T00:27:25.618Z,4.73
2023-05-17T00:30:12.660Z,3.77
2023-05-17T00:32:59.992Z,6.00
2023-05-17T00:35:47.390Z,4.07
2023-05-17T00:38:34.477Z,4.63
2023-05-17T00:41:21.844Z,7.93
2023-05-17T00:44:08.782Z,4.57
2023-05-17T00:46:55.857Z,10.13
2023-05-17T00:49:43.454Z,6.73
2023-05-17T00:52:30.693Z,6.63
2023-05-17T00:55:18.000Z,9.03
2023-05-17T00:58:05.268Z,6.17
2023-05-17T01:00:52.421Z,6.23
2023-05-17T01:03:39.551Z,7.13
2023-05-17T01:06:26.783Z,4.60
2023-05-17T01:09:13.969Z,4.97
2023-05-17T01:12:03.900Z,4.30
2023-05-17T01:14:54.176Z,3.67
2023-05-17T01:17:52.185Z,3.90
2023-05-17T01:20:39.394Z,3.77
2023-05-17T01:23:51.791Z,3.80
2023-05-17T01:26:49.176Z,3.53
2023-05-17T01:29:37.158Z,3.47
2023-05-17T01:32:26.459Z,3.97
2023-05-17T01:35:13.444Z,3.60
2023-05-17T01:38:00.592Z,3.50
2023-05-17T01:40:48.446Z,3.87
2023-05-17T01:43:51.384Z,4.03
2023-05-17T01:46:44.299Z,3.50
2023-05-17T01:49:35.638Z,3.67
2023-05-17T01:52:28.988Z,4.10
2023-05-17T01:55:26.917Z,4.30
2023-05-17T01:58:16.289Z,4.50
2023-05-17T02:01:06.744Z,4.70
2023-05-17T02:03:53.741Z,4.73
2023-05-17T02:06:40.946Z,5.17
2023-05-17T02:09:28.248Z,5.57
2023-05-17T02:12:15.216Z,6.33
2023-05-17T02:15:02.195Z,7.43
2023-05-17T02:17:49.432Z,13.40
2023-05-17T02:20:36.645Z,6.40
2023-05-17T02:23:23.579Z,7.03
2023-05-17T02:26:13.158Z,6.63
2023-05-17T02:29:00.200Z,6.40
2023-05-17T02:31:47.367Z,6.83
2023-05-17T02:34:34.365Z,7.03
2023-05-17T02:37:21.537Z,7.67
2023-05-17T02:40:08.706Z,7.60
2023-05-17T02:42:56.651Z,7.40
2023-05-17T02:45:43.783Z,8.60
2023-05-17T02:48:33.136Z,8.63
2023-05-17T02:51:20.257Z,9.13
2023-05-17T02:54:07.511Z,9.43
2023-05-17T02:56:54.822Z,8.53
2023-05-17T02:59:42.118Z,8.47
2023-05-17T03:02:29.283Z,9.27
2023-05-17T03:05:16.394Z,9.70
2023-05-17T03:08:08.461Z,10.10
2023-05-17T03:10:55.446Z,12.17
2023-05-17T03:13:42.576Z,11.60
2023-05-17T03:16:31.953Z,16.80
2023-05-17T03:19:20.464Z,13.93
2023-05-17T03:22:07.585Z,9.27
2023-05-17T03:24:54.777Z,9.87
2023-05-17T03:27:42.575Z,9.47
2023-05-17T03:30:30.022Z,9.03
2023-05-17T03:33:19.313Z,8.93
2023-05-17T03:36:06.534Z,9.00
2023-05-17T03:38:53.526Z,9.40
2023-05-17T03:41:40.748Z,14.97
2023-05-17T03:44:27.913Z,10.93
2023-05-17T03:47:15.058Z,10.03
2023-05-17T03:50:02.877Z,8.50
2023-05-17T03:52:51.042Z,8.57
2023-05-17T03:55:38.869Z,9.30
2023-05-17T03:58:27.338Z,8.63
2023-05-17T04:01:14.443Z,8.83
2023-05-17T04:04:01.680Z,8.87
2023-05-17T04:06:48.825Z,8.77
2023-05-17T04:09:36.418Z,8.73
2023-05-17T04:12:23.687Z,8.37
2023-05-17T04:15:10.777Z,8.87
2023-05-17T04:18:00.021Z,9.03
2023-05-17T04:20:47.350Z,8.70
2023-05-17T04:23:34.516Z,9.70
2023-05-17T04:26:22.951Z,10.40
2023-05-17T04:29:10.411Z,9.23
2023-05-17T04:31:57.417Z,9.80
2023-05-17T04:34:44.707Z,9.00
2023-05-17T04:37:31.634Z,8.17
2023-05-17T04:40:24.241Z,9.20
2023-05-17T04:43:11.656Z,9.83
2023-05-17T04:45:59.031Z,9.33
2023-05-17T04:48:46.876Z,9.37
2023-05-17T04:51:34.473Z,8.77
2023-05-17T04:54:22.267Z,9.30
2023-05-17T04:57:10.786Z,10.57
2023-05-17T05:00:10.044Z,10.77
2023-05-17T05:02:59.642Z,10.33
2023-05-17T05:05:46.890Z,11.43
2023-05-17T05:08:35.802Z,12.10
2023-05-17T05:11:24.505Z,10.60
2023-05-17T05:14:11.790Z,10.63
2023-05-17T05:16:58.919Z,10.77
2023-05-17T05:19:46.352Z,10.43
2023-05-17T05:22:33.509Z,14.37
2023-05-17T05:25:20.811Z,12.20
2023-05-17T05:28:07.758Z,13.63
2023-05-17T05:30:58.306Z,12.53
2023-05-17T05:33:45.994Z,16.30
2023-05-17T05:36:33.384Z,10.87
2023-05-17T05:39:22.702Z,12.53
2023-05-17T05:42:10.582Z,9.97
2023-05-17T05:44:57.846Z,9.63
2023-05-17T05:47:46.461Z,12.43
2023-05-17T05:50:33.473Z,11.53
2023-05-17T05:53:25.394Z,11.67
2023-05-17T05:56:14.957Z,10.73
2023-05-17T05:59:02.199Z,9.57
2023-05-17T06:01:52.112Z,10.77
2023-05-17T06:04:45.300Z,10.50
2023-05-17T06:07:33.800Z,11.37
2023-05-17T06:10:20.982Z,10.00
2023-05-17T06:13:07.891Z,10.10
2023-05-17T06:15:56.251Z,12.27
2023-05-17T06:18:43.318Z,10.73
2023-05-17T06:21:30.620Z,11.37
2023-05-17T06:24:17.766Z,10.33
2023-05-17T06:27:04.775Z,10.33
2023-05-17T06:29:51.893Z,10.93
2023-05-17T06:32:39.750Z,12.90
2023-05-17T06:35:27.728Z,10.03
2023-05-17T06:38:15.157Z,10.13
2023-05-17T06:41:02.111Z,12.50
2023-05-17T06:43:49.384Z,13.07
2023-05-17T06:46:36.411Z,15.17
2023-05-17T06:49:23.468Z,14.13
2023-05-17T06:52:10.399Z,11.70
2023-05-17T06:54:57.598Z,12.77
2023-05-17T06:57:44.515Z,13.70
2023-05-17T07:00:32.611Z,9.90
2023-05-17T07:03:20.232Z,8.70
2023-05-17T07:06:07.363Z,9.13
2023-05-17T07:08:54.508Z,9.80
2023-05-17T07:11:41.444Z,9.77
2023-05-17T07:14:28.557Z,10.70
2023-05-17T07:17:15.620Z,12.03
2023-05-17T07:20:02.963Z,10.50
2023-05-17T07:22:49.979Z,8.60
2023-05-17T07:25:37.084Z,8.87
2023-05-17T07:28:25.110Z,9.03
2023-05-17T07:31:12.155Z,21.97
2023-05-17T07:33:59.323Z,10.50
2023-05-17T07:36:46.396Z,9.07
2023-05-17T07:39:33.338Z,17.83
2023-05-17T07:42:20.299Z,9.63
2023-05-17T07:45:07.235Z,10.47
2023-05-17T07:47:54.256Z,9.23
2023-05-17T07:50:41.340Z,11.27
2023-05-17T07:53:28.236Z,8.13
2023-05-17T07:56:15.168Z,9.27
2023-05-17T07:59:02.344Z,10.10
2023-05-17T08:01:49.361Z,10.27
2023-05-17T08:04:36.611Z,11.03
2023-05-17T08:07:23.719Z,9.97
2023-05-17T08:10:10.743Z,12.53
2023-05-17T08:12:57.855Z,10.37
2023-05-17T08:15:44.841Z,9.00
2023-05-17T08:18:31.969Z,9.27
2023-05-17T08:21:19.079Z,9.30
2023-05-17T08:24:06.592Z,11.83
2023-05-17T08:26:54.074Z,11.27
2023-05-17T08:29:41.093Z,8.90
2023-05-17T08:32:28.161Z,8.73
2023-05-17T08:35:15.357Z,9.10
2023-05-17T08:38:02.336Z,9.97
2023-05-17T08:40:49.715Z,9.80
2023-05-17T08:43:37.272Z,10.07
2023-05-17T08:46:24.300Z,10.00
2023-05-17T08:49:13.331Z,12.93
2023-05-17T08:52:00.921Z,9.43
2023-05-17T08:54:48.145Z,10.93
2023-05-17T08:57:36.961Z,12.67
2023-05-17T09:00:24.980Z,13.00
2023-05-17T09:03:12.074Z,14.27
2023-05-17T09:05:59.282Z,12.27
2023-05-17T09:08:46.517Z,9.43
2023-05-17T09:11:46.366Z,11.27
2023-05-17T09:14:39.348Z,12.20
2023-05-17T09:17:26.358Z,11.13
2023-05-17T09:20:13.511Z,8.47
2023-05-17T09:23:00.846Z,8.13
2023-05-17T09:25:49.961Z,7.10
2023-05-17T09:28:39.363Z,7.07
2023-05-17T09:31:27.554Z,6.03
2023-05-17T09:34:14.749Z,7.13
2023-05-17T09:37:04.833Z,5.90
2023-05-17T09:39:52.542Z,6.83
2023-05-17T09:42:39.531Z,5.13
2023-05-17T09:45:27.157Z,5.50
2023-05-17T09:48:14.553Z,5.30
2023-05-17T09:51:11.461Z,4.27
2023-05-17T09:54:01.131Z,4.33
2023-05-17T09:56:49.895Z,4.60
2023-05-17T09:59:36.989Z,4.93
2023-05-17T10:02:33.383Z,3.47
2023-05-17T10:05:24.653Z,3.83
2023-05-17T10:08:14.443Z,4.40
2023-05-17T10:11:02.200Z,4.50
2023-05-17T10:13:54.714Z,5.17
2023-05-17T10:16:42.608Z,4.40
2023-05-17T10:19:31.807Z,4.00
2023-05-17T10:22:23.458Z,4.10
2023-05-17T10:25:11.854Z,4.10
2023-05-17T10:27:59.222Z,3.33
2023-05-17T10:30:48.793Z,3.37
2023-05-17T10:33:36.133Z,3.73
2023-05-17T10:36:25.016Z,2.87
2023-05-17T10:39:13.078Z,2.90
2023-05-17T10:42:14.160Z,2.60
2023-05-17T10:45:01.987Z,2.40
2023-05-17T10:47:53.351Z,2.30
2023-05-17T10:50:54.570Z,2.37
2023-05-17T10:53:48.582Z,2.37
2023-05-17T10:56:35.561Z,2.80
2023-05-17T10:59:35.549Z,2.10
2023-05-17T11:02:23.897Z,1.97
2023-05-17T11:05:14.204Z,2.43
2023-05-17T11:08:01.447Z,2.30
2023-05-17T11:10:48.446Z,2.40
2023-05-17T11:13:46.195Z,2.10
2023-05-17T11:16:36.595Z,2.10
2023-05-17T11:19:31.760Z,2.50
2023-05-17T11:22:19.432Z,2.47
2023-05-17T11:25:11.438Z,2.73
2023-05-17T11:28:12.207Z,2.40
2023-05-17T11:31:02.583Z,2.70
2023-05-17T11:34:04.304Z,2.53
2023-05-17T11:36:52.197Z,1.70
2023-05-17T11:39:44.381Z,2.03
2023-05-17T11:42:44.585Z,1.50
2023-05-17T11:45:31.652Z,1.07
2023-05-17T11:48:18.990Z,0.90
2023-05-17T11:51:09.230Z,0.70
2023-05-17T11:53:56.367Z,0.97
2023-05-17T11:56:44.276Z,1.27
2023-05-17T11:59:31.281Z,1.47
2023-05-17T12:02:18.372Z,1.17
2023-05-17T12:05:05.443Z,1.00
2023-05-17T12:07:54.319Z,1.63
2023-05-17T12:10:41.390Z,1.00
2023-05-17T12:13:29.637Z,1.47
2023-05-17T12:16:19.784Z,1.00
2023-05-17T12:19:11.851Z,1.70
2023-05-17T12:21:59.043Z,0.87
2023-05-17T12:24:57.498Z,0.80
2023-05-17T12:27:47.430Z,1.23
2023-05-17T12:30:35.553Z,0.87
2023-05-17T12:33:22.615Z,0.73
2023-05-17T12:36:10.417Z,0.80
2023-05-17T12:39:00.636Z,1.70
2023-05-17T12:41:48.365Z,0.70
2023-05-17T12:44:35.483Z,0.60
2023-05-17T12:47:22.873Z,1.33
2023-05-17T12:50:15.966Z,0.70
2023-05-17T12:53:03.065Z,1.20
2023-05-17T12:55:56.971Z,1.17
2023-05-17T12:58:32.207Z,0.97
2023-05-17T13:01:21.103Z,0.57
2023-05-17T13:04:11.569Z,1.57
2023-05-17T13:07:16.722Z,0.80
2023-05-17T13:10:08.001Z,0.60
2023-05-17T13:12:55.010Z,0.77
2023-05-17T13:15:48.107Z,0.50
2023-05-17T13:18:38.548Z,0.60
2023-05-17T13:21:25.607Z,0.83
2023-05-17T13:24:12.677Z,0.63
2023-05-17T13:26:59.818Z,0.60
2023-05-17T13:29:46.839Z,0.30
2023-05-17T13:32:34.350Z,0.43
2023-05-17T13:35:21.457Z,0.40
2023-05-17T13:38:08.642Z,0.30
2023-05-17T13:40:55.665Z,0.20
2023-05-17T13:43:42.973Z,0.33
2023-05-17T13:46:29.987Z,0.30
2023-05-17T13:49:17.441Z,0.10
2023-05-17T13:52:04.566Z,0.50
2023-05-17T13:54:51.702Z,0.30
2023-05-17T13:57:38.737Z,1.03
2023-05-17T14:00:26.634Z,0.10
2023-05-17T14:03:13.719Z,0.50
2023-05-17T14:06:00.938Z,0.10
2023-05-17T14:08:47.880Z,0.20
2023-05-17T14:11:35.046Z,0.97
2023-05-17T14:14:22.090Z,1.20
2023-05-17T14:17:09.120Z,0.23
